Data for 10/13/2018

Time Sea-Level Adjusted Pressure Absolute Pressure Temperature Relative Humidity Dew Point   
(mb) (inHg) (mb) (inHg) (C) (F) (%) (C) (F)
00:05 1014 29.94 843 24.89 6.6 43.8 58 -1.1 30
00:10 1014 29.94 843 24.89 6.3 43.4 59 -1 30.2
00:15 1014 29.94 843 24.89 6.2 43.1 59 -1.2 29.9
00:20 1014 29.94 843 24.89 5.9 42.7 62 -0.9 30.4
00:25 1014 29.94 843 24.89 5.8 42.5 60 -1.4 29.5
00:30 1014 29.94 843 24.89 6.1 42.9 59 -1.3 29.6
00:35 1014 29.94 843 24.89 6.2 43.2 59 -1.2 29.8
00:40 1014 29.94 843 24.89 6.3 43.4 58 -1.4 29.5
00:45 1014 29.94 843 24.89 6.5 43.7 56 -1.7 29
00:50 1014 29.94 843 24.89 6.4 43.6 58 -1.3 29.7
00:55 1014 29.94 843 24.89 6.2 43.1 55 -2.3 27.9
01:00 1014 29.94 843 24.89 6.3 43.4 55 -2.1 28.1
01:05 1014 29.94 843 24.89 6.1 43 58 -1.6 29.1
01:10 1014 29.94 843 24.89 5.8 42.5 60 -1.4 29.5
01:15 1014 29.94 843 24.89 5.6 42.1 60 -1.5 29.3
01:20 1014 29.94 843 24.89 5.5 41.9 59 -1.9 28.6
01:25 1014 29.94 843 24.89 5.5 41.9 61 -1.4 29.5
01:30 1014 29.94 843 24.89 5.4 41.7 60 -1.7 28.9
01:35 1014 29.94 843 24.89 5.6 42.1 57 -2.3 27.8
01:40 1014 29.94 843 24.89 6 42.7 55 -2.3 27.8
01:45 1014 29.94 843 24.89 6.2 43.1 55 -2.2 28
01:50 1014 29.94 843 24.89 6.2 43.1 53 -2.7 27.1
01:55 1014 29.94 843 24.89 6.2 43.2 55 -2.2 28.1
02:00 1014 29.94 843 24.89 6.2 43.2 55 -2.2 28
02:05 1014 29.94 843 24.89 6.1 43.1 55 -2.2 28
02:10 1014 29.94 843 24.89 6.1 43 54 -2.4 27.6
02:15 1014 29.94 843 24.89 6.1 42.9 54 -2.6 27.3
02:20 1014 29.94 843 24.89 5.9 42.7 54 -2.7 27.1
02:25 1014 29.94 843 24.89 5.9 42.5 54 -2.8 27
02:30 1014 29.94 843 24.89 5.8 42.4 53 -3 26.6
02:35 1014 29.94 843 24.89 5.7 42.2 54 -2.8 27
02:40 1014 29.94 843 24.89 5.5 42 55 -2.8 26.9
02:45 1014 29.94 843 24.89 5.4 41.8 56 -2.6 27.3
02:50 1014 29.94 843 24.89 5.2 41.4 57 -2.6 27.3
02:55 1014 29.94 843 24.89 5.1 41.1 58 -2.5 27.5
03:00 1014 29.94 843 24.89 4.9 40.8 61 -2.1 28.2
03:05 1014 29.94 843 24.89 4.7 40.4 60 -2.4 27.8
03:10 1014 29.94 843 24.89 4.5 40.2 62 -2.2 28
03:15 1014 29.94 843 24.89 4.4 39.9 63 -2.1 28.2
03:20 1014 29.94 844 24.92 4.2 39.6 63 -2.1 28.2
03:25 1014 29.94 844 24.92 4 39.3 65 -2 28.4
03:30 1014 29.94 844 24.92 3.8 38.8 65 -2.2 28
03:35 1015 29.97 844 24.92 3.7 38.7 65 -2.2 28.1
03:40 1015 29.97 844 24.92 3.6 38.6 66 -2.1 28.3
03:45 1015 29.97 844 24.92 3.3 38 73 -1.1 30
03:50 1015 29.97 844 24.92 2.9 37.3 74 -1.2 29.8
03:55 1015 29.97 844 24.92 2.4 36.3 78 -1 30.2
04:00 1015 29.97 844 24.92 1.4 34.5 84 -1.1 30.1
04:05 1015 29.97 844 24.92 0.8 33.4 87 -1.1 30.1
04:10 1015 29.97 844 24.92 0.5 32.9 89 -1.1 30
04:15 1015 29.97 844 24.92 0.4 32.7 90 -1.1 30
04:20 1015 29.97 844 24.92 0.3 32.5 90 -1.2 29.9
04:25 1015 29.97 844 24.92 0.1 32.2 91 -1.2 29.8
04:30 1015 29.97 844 24.92 0 32 91 -1.3 29.7
04:35 1015 29.97 844 24.92 -0.1 31.8 91 -1.3 29.6
04:40 1015 29.97 844 24.92 -0.1 31.7 92 -1.3 29.6
04:45 1015 29.97 844 24.92 -0.3 31.5 92 -1.4 29.4
04:50 1015 29.97 844 24.92 -0.4 31.3 92 -1.5 29.2
04:55 1015 29.97 844 24.92 -0.4 31.2 92 -1.5 29.2
05:00 1015 29.97 844 24.92 -0.5 31.1 92 -1.6 29.2
05:05 1015 29.97 845 24.95 -0.5 31.1 93 -1.6 29.2
05:10 1015 29.97 845 24.95 -0.6 31 93 -1.6 29.1
05:15 1015 29.97 845 24.95 -0.5 31.1 93 -1.5 29.2
05:20 1015 29.97 845 24.95 -0.6 31 93 -1.6 29.2
05:25 1015 29.97 844 24.92 -0.6 31 93 -1.6 29.2
05:30 1015 29.97 844 24.92 -0.7 30.7 93 -1.7 28.9
05:35 1015 29.97 844 24.92 -0.9 30.5 93 -1.9 28.7
05:40 1015 29.97 845 24.95 -1 30.3 93 -1.9 28.5
05:45 1015 29.97 845 24.95 -1 30.2 93 -2 28.5
05:50 1015 29.97 845 24.95 -1.1 30.1 93 -2 28.4
05:55 1015 29.97 845 24.95 -1 30.1 93 -2 28.4
06:00 1015 29.97 845 24.95 -1.1 30 93 -2.1 28.3
06:05 1016 30 845 24.95 -1.2 29.9 93 -2.1 28.2
06:10 1016 30 845 24.95 -1.3 29.7 93 -2.2 28
06:15 1016 30 845 24.95 -1.5 29.3 93 -2.5 27.6
06:20 1016 30 845 24.95 -1.6 29 93 -2.6 27.3
06:25 1016 30 845 24.95 -1.7 28.9 93 -2.7 27.2
06:30 1016 30 845 24.95 -1.8 28.7 93 -2.8 27
06:35 1016 30 845 24.95 -1.8 28.7 93 -2.8 27
06:40 1016 30 845 24.95 -1.8 28.7 93 -2.7 27.1
06:45 1016 30 845 24.95 -1.8 28.7 93 -2.8 27
06:50 1016 30 845 24.95 -2 28.4 93 -2.9 26.7
06:55 1016 30 845 24.95 -2.1 28.2 93 -3.1 26.5
07:00 1016 30 845 24.95 -2.2 28 93 -3.2 26.3
07:05 1016 30 845 24.95 -2.3 27.9 93 -3.3 26.1
07:10 1016 30 845 24.95 -2.4 27.7 93 -3.4 25.9
07:15 1016 30 846 24.98 -2.4 27.7 93 -3.4 26
07:20 1017 30.03 846 24.98 -2.4 27.7 93 -3.4 25.9
07:25 1017 30.03 846 24.98 -2.4 27.7 93 -3.3 26
07:30 1017 30.03 846 24.98 -2.5 27.5 93 -3.5 25.8
07:35 1017 30.03 846 24.98 -2.6 27.4 93 -3.6 25.6
07:40 1017 30.03 846 24.98 -2.6 27.3 93 -3.6 25.6
07:45 1017 30.03 846 24.98 -2.6 27.3 93 -3.6 25.5
07:50 1017 30.03 846 24.98 -2.7 27.2 93 -3.7 25.4
07:55 1017 30.03 846 24.98 -2.7 27.2 93 -3.6 25.5
08:00 1017 30.03 847 25.01 -2.6 27.3 93 -3.5 25.6
08:05 1017 30.03 847 25.01 -2.5 27.5 93 -3.5 25.8
08:10 1018 30.06 847 25.01 -2.5 27.5 93 -3.5 25.7
08:15 1018 30.06 847 25.01 -2.7 27.2 93 -3.6 25.5
08:20 1018 30.06 847 25.01 -2.6 27.3 93 -3.6 25.6
08:25 1018 30.06 847 25.01 -2.5 27.4 93 -3.5 25.7
08:30 1018 30.06 847 25.01 -2.5 27.5 93 -3.5 25.8
08:35 1018 30.06 847 25.01 -2.6 27.4 93 -3.6 25.6
08:40 1018 30.06 847 25.01 -2.7 27.1 93 -3.8 25.2
08:45 1018 30.06 847 25.01 -2.8 26.9 93 -3.8 25.1
08:50 1018 30.06 847 25.01 -2.8 27 93 -3.8 25.2
08:55 1018 30.06 848 25.04 -2.8 27 93 -3.8 25.2
09:00 1018 30.06 848 25.04 -2.8 26.9 93 -3.9 25
09:05 1018 30.06 848 25.04 -2.9 26.8 93 -3.9 24.9
09:10 1018 30.06 848 25.04 -2.9 26.9 93 -3.9 25
09:15 1019 30.09 848 25.04 -2.9 26.7 92 -4 24.8
09:20 1019 30.09 848 25.04 -3 26.6 92 -4 24.7
09:25 1019 30.09 848 25.04 -3 26.6 92 -4 24.7
09:30 1019 30.09 848 25.04 -3 26.6 92 -4.1 24.7
09:35 1019 30.09 848 25.04 -3 26.6 92 -4.1 24.7
09:40 1019 30.09 848 25.04 -3 26.6 92 -4.1 24.7
09:45 1019 30.09 848 25.04 -3 26.6 92 -4 24.7
09:50 1019 30.09 848 25.04 -3 26.6 93 -4.1 24.7
09:55 1019 30.09 849 25.07 -2.9 26.7 92 -4 24.8
10:00 1019 30.09 849 25.07 -2.9 26.8 93 -3.9 24.9
10:05 1020 30.12 849 25.07 -2.9 26.8 92 -4 24.9
10:10 1020 30.12 849 25.07 -3 26.6 92 -4.1 24.6
10:15 1020 30.12 849 25.07 -3.1 26.4 92 -4.3 24.3
10:20 1020 30.12 849 25.07 -3.1 26.3 92 -4.2 24.4
10:25 1020 30.12 849 25.07 -3.1 26.5 92 -4.2 24.5
10:30 1020 30.12 849 25.07 -3 26.5 92 -4.2 24.5
10:35 1020 30.12 849 25.07 -2.9 26.8 92 -4 24.8
10:40 1020 30.12 849 25.07 -2.8 27 92 -3.9 24.9
10:45 1020 30.12 849 25.07 -2.8 26.9 92 -3.9 24.9
10:50 1020 30.12 849 25.07 -2.8 27 92 -3.9 24.9
10:55 1020 30.12 849 25.07 -2.8 27 92 -4 24.8
11:00 1020 30.12 849 25.07 -2.8 26.9 92 -4 24.8
11:05 1020 30.12 849 25.07 -2.8 26.9 92 -4 24.8
11:10 1020 30.12 849 25.07 -2.8 26.9 92 -3.9 24.9
11:15 1020 30.12 849 25.07 -2.7 27.2 92 -3.8 25.2
11:20 1020 30.12 849 25.07 -2.5 27.5 92 -3.6 25.5
11:25 1020 30.12 849 25.07 -2.4 27.7 92 -3.5 25.7
11:30 1020 30.12 849 25.07 -2.5 27.5 92 -3.6 25.5
11:35 1020 30.12 849 25.07 -2.4 27.7 92 -3.6 25.6
11:40 1020 30.12 849 25.07 -2.4 27.6 92 -3.5 25.6
11:45 1020 30.12 849 25.07 -2.3 27.8 92 -3.4 25.8
11:50 1020 30.12 849 25.07 -2.2 28 92 -3.4 25.9
11:55 1020 30.12 850 25.1 -2.1 28.2 92 -3.3 26.1
12:00 1020 30.12 849 25.07 -2 28.3 92 -3.2 26.3
12:05 1020 30.12 850 25.1 -2.1 28.3 91 -3.3 26
12:10 1020 30.12 850 25.1 -2.1 28.2 91 -3.3 26
12:15 1020 30.12 850 25.1 -2 28.4 91 -3.3 26.1
12:20 1020 30.12 850 25.1 -1.7 28.9 91 -3 26.6
12:25 1020 30.12 850 25.1 -1.7 29 90 -3.1 26.4
12:30 1020 30.12 850 25.1 -1.7 28.9 90 -3.1 26.4
12:35 1021 30.15 850 25.1 -1.7 28.9 90 -3.2 26.3
12:40 1021 30.15 850 25.1 -1.7 28.9 89 -3.2 26.2
12:45 1021 30.15 850 25.1 -1.7 29 89 -3.2 26.2
12:50 1021 30.15 850 25.1 -1.7 28.9 88 -3.5 25.7
12:55 1021 30.15 850 25.1 -1.6 29.1 89 -3.2 26.2
13:00 1021 30.15 850 25.1 -1.3 29.7 89 -2.9 26.8
13:05 1020 30.12 850 25.1 -1 30.2 89 -2.6 27.3
13:10 1021 30.15 850 25.1 -0.8 30.6 88 -2.6 27.4
13:15 1021 30.15 850 25.1 -0.9 30.5 84 -3.2 26.2
13:20 1021 30.15 850 25.1 -1.3 29.7 82 -4 24.7
13:25 1021 30.15 850 25.1 -1.5 29.3 84 -3.8 25.1
13:30 1021 30.15 850 25.1 -1.6 29.1 82 -4.3 24.3
13:35 1021 30.15 850 25.1 -1.8 28.8 81 -4.5 23.8
13:40 1021 30.15 850 25.1 -1.7 28.9 80 -4.7 23.5
13:45 1021 30.15 850 25.1 -1.7 29 79 -4.8 23.3
13:50 1021 30.15 850 25.1 -1.7 28.9 81 -4.6 23.7
13:55 1021 30.15 850 25.1 -1.9 28.6 80 -4.8 23.3
14:00 1021 30.15 850 25.1 -1.7 28.9 77 -5.2 22.6
14:05 1021 30.15 850 25.1 -1.5 29.3 76 -5.3 22.5
14:10 1021 30.15 850 25.1 -1.3 29.6 73 -5.6 21.9
14:15 1021 30.15 850 25.1 -1.3 29.7 77 -4.9 23.2
14:20 1021 30.15 850 25.1 -1.1 30.1 75 -4.9 23.2
14:25 1021 30.15 850 25.1 -1.2 29.8 73 -5.5 22.1
14:30 1021 30.15 850 25.1 -1.7 29 75 -5.6 21.9
14:35 1021 30.15 851 25.13 -2 28.4 77 -5.5 22.1
14:40 1021 30.15 851 25.13 -2.1 28.2 72 -6.5 20.3
14:45 1022 30.18 851 25.13 -2.5 27.5 76 -6.2 20.9
14:50 1022 30.18 851 25.13 -2.4 27.8 73 -6.5 20.3
14:55 1022 30.18 851 25.13 -2.1 28.2 75 -5.9 21.3
15:00 1022 30.18 851 25.13 -1.9 28.7 71 -6.4 20.5
15:05 1022 30.18 851 25.13 -2.1 28.2 73 -6.4 20.4
15:10 1022 30.18 851 25.13 -2.2 28.1 72 -6.6 20.1
15:15 1022 30.18 851 25.13 -2.1 28.2 71 -6.7 20
15:20 1022 30.18 851 25.13 -2.1 28.1 71 -6.7 20
15:25 1022 30.18 851 25.13 -2.1 28.2 72 -6.4 20.4
15:30 1022 30.18 851 25.13 -1.9 28.5 72 -6.4 20.4
15:35 1022 30.18 851 25.13 -1.8 28.8 69 -6.8 19.8
15:40 1022 30.18 851 25.13 -1.8 28.8 70 -6.6 20
15:45 1022 30.18 851 25.13 -1.8 28.7 69 -6.7 19.9
15:50 1022 30.18 852 25.16 -1.8 28.8 69 -6.7 19.9
15:55 1022 30.18 852 25.16 -1.7 28.9 69 -6.8 19.8
16:00 1022 30.18 852 25.16 -1.8 28.8 67 -7.2 19
16:05 1022 30.18 852 25.16 -1.9 28.6 68 -7 19.4
16:10 1023 30.21 852 25.16 -2 28.4 69 -6.9 19.5
16:15 1023 30.21 852 25.16 -2 28.4 67 -7.3 18.9
16:20 1023 30.21 852 25.16 -2 28.3 67 -7.5 18.6
16:25 1023 30.21 852 25.16 -2.1 28.1 68 -7.2 19.1
16:30 1023 30.21 852 25.16 -2.2 28.1 69 -7.1 19.2
16:35 1023 30.21 852 25.16 -2.1 28.1 66 -7.7 18.1
16:40 1023 30.21 852 25.16 -2.2 28 69 -7.3 18.9
16:45 1023 30.21 852 25.16 -2.3 27.9 67 -7.7 18.2
16:50 1023 30.21 852 25.16 -2.4 27.7 68 -7.5 18.5
16:55 1023 30.21 852 25.16 -2.4 27.8 68 -7.6 18.4
17:00 1023 30.21 852 25.16 -2.4 27.7 65 -8 17.6
17:05 1023 30.21 852 25.16 -2.5 27.5 67 -7.9 17.8
17:10 1023 30.21 852 25.16 -2.5 27.5 64 -8.5 16.7
17:15 1023 30.21 852 25.16 -2.6 27.4 65 -8.3 17
17:20 1023 30.21 852 25.16 -2.6 27.2 64 -8.6 16.5
17:25 1023 30.21 852 25.16 -2.8 27 65 -8.4 16.9
17:30 1023 30.21 852 25.16 -2.9 26.9 63 -8.9 16
17:35 1023 30.21 852 25.16 -3 26.6 64 -9 15.9
17:40 1023 30.21 853 25.19 -3.1 26.4 65 -8.9 16
17:45 1023 30.21 853 25.19 -3.3 26.1 66 -8.8 16.2
17:50 1024 30.24 853 25.19 -3.3 26 66 -8.9 16
17:55 1024 30.24 853 25.19 -3.5 25.8 66 -8.9 16
18:00 1024 30.24 853 25.19 -3.6 25.6 67 -8.9 16
18:05 1024 30.24 853 25.19 -3.7 25.4 68 -8.8 16.2
18:10 1024 30.24 853 25.19 -3.7 25.3 68 -8.9 16
18:15 1024 30.24 853 25.19 -3.8 25.2 68 -8.8 16.1
18:20 1024 30.24 853 25.19 -3.8 25.1 67 -9 15.8
18:25 1024 30.24 853 25.19 -3.9 25.1 68 -8.9 16
18:30 1024 30.24 853 25.19 -4 24.8 66 -9.4 15.2
18:35 1024 30.24 853 25.19 -4.2 24.5 67 -9.4 15
18:40 1024 30.24 853 25.19 -4.3 24.3 68 -9.4 15.1
18:45 1024 30.24 853 25.19 -4.2 24.4 69 -9.1 15.6
18:50 1024 30.24 853 25.19 -4.1 24.5 68 -9.2 15.4
18:55 1024 30.24 853 25.19 -4.2 24.4 70 -9 15.8
19:00 1024 30.24 853 25.19 -4.3 24.3 68 -9.4 15.1
19:05 1024 30.24 853 25.19 -4.3 24.3 68 -9.4 15.1
19:10 1024 30.24 853 25.19 -4.3 24.2 70 -9 15.7
19:15 1024 30.24 853 25.19 -4.3 24.3 70 -9 15.8
19:20 1024 30.24 854 25.22 -4.2 24.4 69 -9 15.8
19:25 1024 30.24 854 25.22 -4.1 24.6 74 -8.2 17.3
19:30 1024 30.24 854 25.22 -4.4 24 73 -8.5 16.7
19:35 1024 30.24 854 25.22 -4.8 23.4 76 -8.4 16.9
19:40 1024 30.24 854 25.22 -4.7 23.6 74 -8.6 16.5
19:45 1024 30.24 854 25.22 -4.5 23.9 73 -8.7 16.4
19:50 1025 30.27 854 25.22 -4.5 23.9 73 -8.6 16.5
19:55 1025 30.27 854 25.22 -4.5 24 73 -8.6 16.5
20:00 1025 30.27 854 25.22 -4.5 24 74 -8.4 16.9
20:05 1025 30.27 854 25.22 -4.4 24.1 75 -8.1 17.4
20:10 1025 30.27 854 25.22 -4.4 24.1 77 -7.8 18
20:15 1025 30.27 854 25.22 -4.5 23.9 79 -7.7 18.2
20:20 1025 30.27 854 25.22 -4.6 23.8 80 -7.6 18.4
20:25 1025 30.27 854 25.22 -4.6 23.7 81 -7.5 18.5
20:30 1025 30.27 854 25.22 -4.6 23.7 81 -7.3 18.8
20:35 1025 30.27 854 25.22 -4.5 23.9 82 -7.1 19.1
20:40 1025 30.27 854 25.22 -4.4 24.1 81 -7.1 19.2
20:45 1025 30.27 854 25.22 -4.5 24 82 -7.2 19.1
20:50 1025 30.27 854 25.22 -4.5 24 81 -7.3 18.9
20:55 1025 30.27 854 25.22 -4.5 24 81 -7.2 19
21:00 1025 30.27 854 25.22 -4.4 24.1 81 -7.2 19
21:05 1025 30.27 854 25.22 -4.4 24 81 -7.2 19
21:10 1025 30.27 854 25.22 -4.4 24.1 81 -7.2 19.1
21:15 1025 30.27 854 25.22 -4.3 24.2 80 -7.3 18.8
21:20 1025 30.27 854 25.22 -4.3 24.2 80 -7.3 18.9
21:25 1025 30.27 854 25.22 -4.4 24.1 80 -7.3 18.8
21:30 1025 30.27 854 25.22 -4.3 24.3 79 -7.5 18.5
21:35 1025 30.27 854 25.22 -4.2 24.4 79 -7.4 18.7
21:40 1025 30.27 854 25.22 -4.2 24.5 79 -7.4 18.8
21:45 1025 30.27 854 25.22 -4.2 24.5 78 -7.5 18.6
21:50 1025 30.27 854 25.22 -4.1 24.6 77 -7.6 18.3
21:55 1025 30.27 854 25.22 -4.2 24.5 76 -7.7 18.1
22:00 1025 30.27 854 25.22 -4.1 24.6 77 -7.5 18.5
22:05 1025 30.27 854 25.22 -4.1 24.7 79 -7.2 19
22:10 1025 30.27 854 25.22 -4 24.7 80 -7 19.4
22:15 1025 30.27 854 25.22 -4.1 24.7 78 -7.3 18.9
22:20 1025 30.27 854 25.22 -4.1 24.6 79 -7.3 18.9
22:25 1025 30.27 854 25.22 -4.1 24.6 78 -7.4 18.6
22:30 1025 30.27 854 25.22 -4.1 24.7 77 -7.6 18.4
22:35 1025 30.27 854 25.22 -4 24.7 77 -7.5 18.6
22:40 1025 30.27 854 25.22 -4 24.7 78 -7.3 18.8
22:45 1025 30.27 854 25.22 -4 24.8 77 -7.4 18.6
22:50 1025 30.27 854 25.22 -4 24.8 78 -7.3 18.8
22:55 1025 30.27 854 25.22 -4 24.8 78 -7.4 18.8
23:00 1025 30.27 854 25.22 -4 24.8 77 -7.4 18.7
23:05 1025 30.27 854 25.22 -4 24.8 77 -7.4 18.7
23:10 1025 30.27 854 25.22 -4 24.7 77 -7.4 18.6
23:15 1025 30.27 854 25.22 -4 24.7 78 -7.3 18.9
23:20 1025 30.27 855 25.25 -4.1 24.7 79 -7.2 19.1
23:25 1025 30.27 855 25.25 -4.1 24.5 81 -7 19.4
23:30 1025 30.27 855 25.25 -4.1 24.6 82 -6.7 19.9
23:35 1025 30.27 855 25.25 -4.1 24.7 82 -6.7 19.9
23:40 1025 30.27 855 25.25 -4.1 24.6 83 -6.6 20.1
23:45 1025 30.27 855 25.25 -4.1 24.6 84 -6.5 20.3
23:50 1025 30.27 855 25.25 -4.1 24.5 84 -6.4 20.4
23:55 1026 30.3 855 25.25 -4.1 24.6 85 -6.3 20.7
24:00 1026 30.3 855 25.25 -4 24.7 85 -6.2 20.9